Forside
METAR-TAF:

METAR-TAF

Lufthavne :

Taloyoak, Nunavut, Canada

Breddekreds: 69-33N, længdekreds: 093-35W, højde: 28 m

Aktuelle vejr

Denne rapport blev lavet for 45 minutter siden, kl. 00:00 UTC
Vind 3 kt fra syd
Temperatur -36°C
Fugtighed 66%
Tryk 1019 hPa
Sigt: 24.1 km
skyfri

METAR: CYYH 240000Z 17003KT 15SM SKC M36/M40 A3008 RMK SLP194

Tid: 17:45 (00:45 UTC)

Vejrudsigter

Denne rapport blev lavet for 1 time og 7 minutter siden, kl. 23:38 UTC
Foreløbig gælder fra 24 på 00 UTC til 24 på 12 UTC
Vind 3 kt fra varierende retninger
Sigt: 10 km
skyfri
Midlertidig
fra 24 på 00 UTC til 24 på 12 UTC
Sigt: 6.4 km
iskrystaller, dis
ændring
fra 24 på 02 UTC til 24 på 04 UTC
Vind 12 kt fra nordvest

TAF: CYYH 232338Z 2400/2412 VRB03KT P6SM SKC TEMPO 2400/2412 4SM IC BR BECMG 2402/2404 32012KT RMK NXT FCST BY 240600Z

Vejrobservationer og prognoser fra mere end 4000 lufthavne (METAR og TAF).

De gule og røde prikker repræsenterer de meteorologiske stationer.

Flyt musen over at se navnet på stationen.

Så klik over at se vejr observationer og prognoser.

At skifte det kort: Klik på de grønne knapper med et sort kors for at zoome ind; på den grønne knap med en bindestreg for at zoome ud; eller på de grønne pile for tilstødende kort.


METAR-TAF: